createdAt,value
2022-12-15T00:01:41.710Z,46.95
2022-12-15T00:04:09.101Z,53.03
2022-12-15T00:06:36.850Z,48.55
2022-12-15T00:09:04.295Z,50.55
2022-12-15T00:11:31.948Z,53.22
2022-12-15T00:13:59.289Z,50.42
2022-12-15T00:16:27.023Z,48.65
2022-12-15T00:18:54.560Z,52.65
2022-12-15T00:21:22.116Z,52.22
2022-12-15T00:27:21.980Z,55.92
2022-12-15T00:29:49.717Z,52.85
2022-12-15T00:32:17.118Z,52.50
2022-12-15T00:34:44.763Z,53.90
2022-12-15T00:37:12.125Z,52.20
2022-12-15T00:39:39.830Z,53.25
2022-12-15T00:42:07.945Z,51.80
2022-12-15T00:44:35.581Z,48.53
2022-12-15T00:47:03.425Z,45.08
2022-12-15T00:49:31.610Z,43.58
2022-12-15T00:51:58.962Z,42.17
2022-12-15T00:54:26.689Z,41.30
2022-12-15T00:56:54.144Z,40.47
2022-12-15T00:59:21.789Z,40.92
2022-12-15T01:01:49.613Z,43.28
2022-12-15T01:04:17.597Z,42.42
2022-12-15T01:06:44.937Z,37.92
2022-12-15T01:09:12.941Z,43.65
2022-12-15T01:11:40.495Z,38.45
2022-12-15T01:14:08.152Z,37.95
2022-12-15T01:16:35.701Z,37.13
2022-12-15T01:19:03.415Z,40.40
2022-12-15T01:21:31.396Z,36.33
2022-12-15T01:23:59.122Z,37.53
2022-12-15T01:26:26.445Z,37.90
2022-12-15T01:28:54.129Z,39.30
2022-12-15T01:31:21.611Z,39.60
2022-12-15T01:33:52.925Z,37.22
2022-12-15T01:36:21.466Z,35.95
2022-12-15T01:38:53.899Z,39.83
2022-12-15T01:41:22.261Z,38.33
2022-12-15T01:43:50.080Z,38.25
2022-12-15T01:46:19.207Z,39.30
2022-12-15T01:48:48.265Z,40.55
2022-12-15T01:51:21.723Z,37.58
2022-12-15T01:53:50.244Z,38.83
2022-12-15T01:56:18.078Z,37.28
2022-12-15T01:58:48.766Z,38.13
2022-12-15T02:01:16.270Z,38.50
2022-12-15T02:03:44.887Z,35.63
2022-12-15T02:06:13.105Z,38.83
2022-12-15T02:08:43.087Z,36.80
2022-12-15T02:11:27.142Z,36.58
2022-12-15T02:14:01.876Z,36.55
2022-12-15T02:16:29.263Z,35.88
2022-12-15T02:19:07.542Z,34.45
2022-12-15T02:21:55.232Z,32.33
2022-12-15T02:24:25.658Z,31.42
2022-12-15T02:27:01.962Z,32.20
2022-12-15T02:29:47.734Z,32.20
2022-12-15T02:32:16.939Z,30.52
2022-12-15T02:35:05.998Z,32.03
2022-12-15T02:37:34.891Z,34.08
2022-12-15T02:40:03.633Z,31.85
2022-12-15T02:42:35.076Z,32.17
2022-12-15T02:45:02.690Z,31.92
2022-12-15T02:47:41.402Z,30.42
2022-12-15T02:50:29.763Z,32.42
2022-12-15T02:53:12.259Z,31.70
2022-12-15T02:55:42.692Z,30.88
2022-12-15T02:58:10.030Z,30.35
2022-12-15T03:00:39.571Z,28.85
2022-12-15T03:03:07.571Z,28.58
2022-12-15T03:05:35.599Z,27.90
2022-12-15T03:08:02.979Z,28.60
2022-12-15T03:10:30.654Z,28.67
2022-12-15T03:12:58.004Z,30.88
2022-12-15T03:15:31.719Z,30.70
2022-12-15T03:18:02.429Z,28.10
2022-12-15T03:20:44.008Z,28.50
2022-12-15T03:23:11.380Z,31.27
2022-12-15T03:25:39.012Z,30.55
2022-12-15T03:28:06.407Z,27.17
2022-12-15T03:30:34.092Z,29.75
2022-12-15T03:33:01.431Z,29.67
2022-12-15T03:35:30.404Z,26.02
2022-12-15T03:37:57.787Z,29.73
2022-12-15T03:40:25.428Z,27.48
2022-12-15T03:42:52.790Z,26.70
2022-12-15T03:45:22.301Z,25.27
2022-12-15T03:47:50.262Z,26.33
2022-12-15T03:50:20.004Z,24.92
2022-12-15T03:52:51.307Z,26.10
2022-12-15T03:55:19.135Z,26.88
2022-12-15T03:57:46.532Z,27.13
2022-12-15T04:00:14.500Z,25.17
2022-12-15T04:02:42.764Z,25.10
2022-12-15T04:05:36.576Z,23.80
2022-12-15T04:08:04.193Z,25.00
2022-12-15T04:10:34.805Z,24.80
2022-12-15T04:13:04.175Z,24.45
2022-12-15T04:15:32.004Z,23.58
2022-12-15T04:18:00.919Z,22.85
2022-12-15T04:20:29.044Z,23.05
2022-12-15T04:22:56.435Z,22.77
2022-12-15T04:25:24.962Z,20.20
2022-12-15T04:27:55.864Z,19.98
2022-12-15T04:30:26.413Z,19.40
2022-12-15T04:32:54.068Z,20.40
2022-12-15T04:35:21.693Z,19.60
2022-12-15T04:37:49.006Z,18.45
2022-12-15T04:40:16.589Z,19.60
2022-12-15T04:42:46.562Z,19.30
2022-12-15T04:45:20.329Z,18.17
2022-12-15T04:47:48.259Z,18.50
2022-12-15T04:50:16.216Z,18.02
2022-12-15T04:52:43.585Z,18.25
2022-12-15T04:55:11.206Z,18.42
2022-12-15T04:57:38.649Z,16.38
2022-12-15T05:00:06.492Z,16.27
2022-12-15T05:02:33.969Z,18.42
2022-12-15T05:05:01.700Z,18.05
2022-12-15T05:07:30.204Z,17.85
2022-12-15T05:10:02.817Z,18.15
2022-12-15T05:12:30.652Z,17.58
2022-12-15T05:14:58.318Z,17.10
2022-12-15T05:17:25.676Z,15.57
2022-12-15T05:19:53.288Z,16.85
2022-12-15T05:22:20.611Z,17.95
2022-12-15T05:24:48.278Z,16.85
2022-12-15T05:27:15.677Z,16.33
2022-12-15T05:29:43.339Z,17.30
2022-12-15T05:32:10.727Z,16.33
2022-12-15T05:34:38.448Z,15.80
2022-12-15T05:37:05.814Z,16.23
2022-12-15T05:39:33.455Z,17.92
2022-12-15T05:42:00.872Z,16.42
2022-12-15T05:44:28.772Z,16.58
2022-12-15T05:46:56.236Z,17.02
2022-12-15T05:49:23.847Z,15.15
2022-12-15T05:51:51.202Z,14.68
2022-12-15T05:54:19.884Z,15.07
2022-12-15T05:56:50.361Z,15.82
2022-12-15T05:59:18.605Z,14.35
2022-12-15T06:01:46.101Z,15.32
2022-12-15T06:04:14.167Z,14.90
2022-12-15T06:06:41.609Z,14.82
2022-12-15T06:09:09.565Z,14.20
2022-12-15T06:11:37.139Z,13.25
2022-12-15T06:14:05.098Z,15.30
2022-12-15T06:16:32.565Z,13.75
2022-12-15T06:19:00.964Z,14.27
2022-12-15T06:21:33.022Z,14.63
2022-12-15T06:26:37.809Z,16.30
2022-12-15T06:29:07.270Z,16.17
2022-12-15T06:31:35.148Z,14.63
2022-12-15T06:34:06.360Z,15.57
2022-12-15T06:36:34.013Z,16.95
2022-12-15T06:39:02.590Z,15.63
2022-12-15T06:41:30.379Z,14.05
2022-12-15T06:44:00.198Z,12.70
2022-12-15T06:46:28.929Z,11.88
2022-12-15T06:48:57.128Z,12.82
2022-12-15T06:51:24.803Z,13.15
2022-12-15T06:53:52.841Z,12.35
2022-12-15T06:56:40.500Z,13.27
2022-12-15T06:59:08.167Z,12.50
2022-12-15T07:04:54.417Z,13.43
2022-12-15T07:07:21.733Z,16.77
2022-12-15T07:09:51.466Z,18.85
2022-12-15T07:12:18.785Z,17.30
2022-12-15T07:14:50.124Z,15.68
2022-12-15T07:17:20.614Z,15.52
2022-12-15T07:19:48.366Z,14.90
2022-12-15T07:22:15.713Z,13.88
2022-12-15T07:24:43.309Z,12.77
2022-12-15T07:27:10.759Z,12.70
2022-12-15T07:29:38.442Z,12.38
2022-12-15T07:32:17.513Z,10.75
2022-12-15T07:34:45.501Z,11.95
2022-12-15T07:37:15.664Z,12.48
2022-12-15T07:39:43.394Z,13.02
2022-12-15T07:42:10.849Z,13.43
2022-12-15T07:44:38.817Z,12.75
2022-12-15T07:47:06.470Z,12.68
2022-12-15T07:49:34.215Z,11.38
2022-12-15T07:52:01.577Z,10.98
2022-12-15T07:54:29.257Z,12.15
2022-12-15T07:56:56.695Z,11.43
2022-12-15T08:02:27.897Z,11.82
2022-12-15T08:08:00.791Z,12.38
2022-12-15T08:10:28.490Z,10.65
2022-12-15T08:12:55.852Z,10.48
2022-12-15T08:15:23.448Z,11.20
2022-12-15T08:17:50.831Z,10.75
2022-12-15T08:20:18.486Z,11.88
2022-12-15T08:22:45.910Z,10.48
2022-12-15T08:25:13.544Z,11.20
2022-12-15T08:27:40.851Z,10.27
2022-12-15T08:30:08.842Z,11.70
2022-12-15T08:32:36.208Z,11.93
2022-12-15T08:35:03.889Z,10.65
2022-12-15T08:37:31.238Z,11.10
2022-12-15T08:39:58.832Z,10.13
2022-12-15T08:42:26.161Z,12.38
2022-12-15T08:44:53.801Z,12.30
2022-12-15T08:47:21.208Z,12.27
2022-12-15T08:49:48.780Z,12.63
2022-12-15T08:52:16.245Z,11.30
2022-12-15T08:54:43.871Z,9.25
2022-12-15T08:57:11.306Z,10.68
2022-12-15T08:59:38.911Z,10.30
2022-12-15T09:02:06.864Z,11.27
2022-12-15T09:04:34.747Z,10.55
2022-12-15T09:07:02.449Z,9.95
2022-12-15T09:09:30.114Z,11.13
2022-12-15T09:11:57.590Z,10.70
2022-12-15T09:14:29.036Z,9.45
2022-12-15T09:16:57.188Z,10.63
2022-12-15T09:19:24.897Z,10.07
2022-12-15T09:21:52.242Z,10.65
2022-12-15T09:24:32.221Z,9.60
2022-12-15T09:27:02.026Z,8.75
2022-12-15T09:29:29.658Z,8.70
2022-12-15T09:31:57.049Z,9.98
2022-12-15T09:34:24.671Z,10.73
2022-12-15T09:36:52.120Z,10.13
2022-12-15T09:39:19.717Z,10.13
2022-12-15T09:41:52.743Z,8.90
2022-12-15T09:44:21.432Z,9.48
2022-12-15T09:46:50.202Z,9.43
2022-12-15T09:49:56.782Z,8.68
2022-12-15T09:52:26.635Z,7.88
2022-12-15T09:54:55.097Z,10.30
2022-12-15T09:57:25.230Z,9.20
2022-12-15T10:00:01.959Z,10.93
2022-12-15T10:02:49.885Z,10.38
2022-12-15T10:05:57.778Z,10.50
2022-12-15T10:08:22.720Z,10.02
2022-12-15T10:11:04.243Z,10.10
2022-12-15T10:13:57.669Z,9.52
2022-12-15T10:16:34.898Z,9.80
2022-12-15T10:19:12.655Z,10.25
2022-12-15T10:21:40.543Z,9.23
2022-12-15T10:24:12.279Z,9.52
2022-12-15T10:26:41.313Z,8.88
2022-12-15T10:29:14.451Z,8.75
2022-12-15T10:31:49.459Z,9.27
2022-12-15T10:37:50.174Z,8.80
2022-12-15T10:40:18.695Z,8.32
2022-12-15T10:42:50.458Z,9.50
2022-12-15T10:45:31.388Z,9.27
2022-12-15T10:47:59.262Z,8.80
2022-12-15T10:50:27.250Z,9.57
2022-12-15T10:52:54.972Z,9.63
2022-12-15T10:55:35.702Z,11.20
2022-12-15T10:58:04.610Z,9.80
2022-12-15T11:00:33.252Z,11.35
2022-12-15T11:03:00.979Z,10.52
2022-12-15T11:05:28.999Z,10.13
2022-12-15T11:08:13.230Z,10.90
2022-12-15T11:14:42.302Z,10.88
2022-12-15T11:17:14.110Z,10.27
2022-12-15T11:20:04.736Z,10.27
2022-12-15T11:22:32.471Z,10.65
2022-12-15T11:25:12.916Z,9.98
2022-12-15T11:27:43.028Z,11.40
2022-12-15T11:30:16.441Z,9.75
2022-12-15T11:32:45.739Z,10.40
2022-12-15T11:35:20.198Z,10.20
2022-12-15T11:38:00.335Z,10.27
2022-12-15T11:40:33.603Z,10.43
2022-12-15T11:43:01.601Z,10.27
2022-12-15T11:45:41.769Z,11.38
2022-12-15T11:48:13.898Z,10.77
2022-12-15T11:50:51.087Z,10.75
2022-12-15T11:53:39.142Z,10.98
2022-12-15T11:56:45.413Z,9.65
2022-12-15T11:59:25.295Z,9.77
2022-12-15T12:02:11.316Z,9.98
2022-12-15T12:04:41.802Z,9.60
2022-12-15T12:07:09.186Z,10.07
2022-12-15T12:09:40.659Z,10.27
2022-12-15T12:12:14.296Z,11.35
2022-12-15T12:21:42.798Z,9.83
2022-12-15T12:24:16.299Z,11.20
2022-12-15T12:26:46.012Z,9.77
2022-12-15T12:29:22.973Z,11.50
2022-12-15T12:32:00.425Z,10.95
2022-12-15T12:34:31.660Z,10.65
2022-12-15T12:37:13.380Z,10.48
2022-12-15T12:39:41.538Z,10.63
2022-12-15T12:42:18.013Z,10.95
2022-12-15T12:44:45.841Z,11.18
2022-12-15T12:47:26.088Z,11.18
2022-12-15T12:49:58.771Z,11.88
2022-12-15T12:55:48.538Z,11.38
2022-12-15T12:58:31.325Z,11.63
2022-12-15T13:01:06.785Z,10.55
2022-12-15T13:03:38.455Z,11.98
2022-12-15T13:06:21.951Z,11.07
2022-12-15T13:08:51.693Z,11.77
2022-12-15T13:11:37.602Z,11.95
2022-12-15T13:14:14.265Z,10.98
2022-12-15T13:17:16.833Z,11.35
2022-12-15T13:19:53.843Z,12.15
2022-12-15T13:22:32.798Z,10.80
2022-12-15T13:25:00.488Z,10.73
2022-12-15T13:27:37.614Z,11.52
2022-12-15T13:30:08.091Z,10.75
2022-12-15T13:32:36.653Z,10.30
2022-12-15T13:35:13.163Z,11.10
2022-12-15T13:37:46.282Z,10.32
2022-12-15T13:40:22.639Z,10.63
2022-12-15T13:43:00.285Z,10.27
2022-12-15T13:53:18.935Z,12.02
2022-12-15T13:56:13.470Z,11.38
2022-12-15T13:58:46.476Z,12.45
2022-12-15T14:01:21.480Z,13.05
2022-12-15T14:04:07.027Z,13.05
2022-12-15T14:09:56.425Z,11.50
2022-12-15T14:15:50.950Z,13.48
2022-12-15T14:18:22.872Z,14.15
2022-12-15T14:20:50.188Z,15.25
2022-12-15T14:23:29.596Z,14.52
2022-12-15T14:26:05.380Z,14.77
2022-12-15T14:28:34.505Z,16.00
2022-12-15T14:31:12.576Z,16.50
2022-12-15T14:33:41.990Z,18.67
2022-12-15T14:36:10.823Z,19.83
2022-12-15T14:39:04.489Z,18.95
2022-12-15T14:41:33.260Z,17.80
2022-12-15T14:47:35.093Z,17.55
2022-12-15T14:53:25.622Z,17.25
2022-12-15T14:55:53.253Z,20.15
2022-12-15T14:58:24.686Z,18.05
2022-12-15T15:00:56.526Z,20.15
2022-12-15T15:03:40.303Z,22.70
2022-12-15T15:06:10.833Z,21.77
2022-12-15T15:08:49.116Z,19.90
2022-12-15T15:11:17.398Z,19.23
2022-12-15T15:13:45.201Z,26.15
2022-12-15T15:16:17.248Z,29.20
2022-12-15T15:18:48.162Z,26.52
2022-12-15T15:21:20.295Z,26.75
2022-12-15T15:27:32.127Z,27.17
2022-12-15T15:30:16.546Z,25.67
2022-12-15T15:32:51.163Z,25.73
2022-12-15T15:35:19.024Z,27.10
2022-12-15T15:37:46.478Z,25.52
2022-12-15T15:40:16.293Z,25.25
2022-12-15T15:42:46.560Z,28.67
2022-12-15T15:45:14.614Z,25.55
2022-12-15T15:47:46.248Z,25.95
2022-12-15T15:50:15.397Z,26.05
2022-12-15T15:52:43.232Z,26.30
2022-12-15T15:55:19.682Z,27.95
2022-12-15T15:57:47.027Z,28.00
2022-12-15T16:00:18.664Z,28.45
2022-12-15T16:02:46.177Z,32.17
2022-12-15T16:08:37.841Z,31.73
2022-12-15T16:11:05.911Z,42.45
2022-12-15T16:13:33.270Z,34.33
2022-12-15T16:16:01.043Z,38.30
2022-12-15T16:18:28.438Z,49.95
2022-12-15T16:20:56.225Z,42.70
2022-12-15T16:23:26.425Z,37.38
2022-12-15T16:25:55.261Z,41.33
2022-12-15T16:28:23.820Z,42.53
2022-12-15T16:30:52.193Z,44.10
2022-12-15T16:33:19.652Z,38.72
2022-12-15T16:35:47.355Z,39.63
2022-12-15T16:38:28.369Z,40.80
2022-12-15T16:41:04.270Z,38.67
2022-12-15T16:43:36.755Z,41.05
2022-12-15T16:46:07.262Z,40.85
2022-12-15T16:48:35.232Z,42.97
2022-12-15T16:51:06.029Z,38.30
2022-12-15T16:53:35.979Z,36.05
2022-12-15T16:56:05.269Z,39.22
2022-12-15T16:58:34.751Z,37.63
2022-12-15T17:01:03.116Z,39.50
2022-12-15T17:03:30.824Z,36.83
2022-12-15T17:06:00.646Z,35.92
2022-12-15T17:08:48.327Z,37.88
2022-12-15T17:11:20.714Z,38.05
2022-12-15T17:13:49.020Z,39.65
2022-12-15T17:16:21.035Z,39.60
2022-12-15T17:18:48.748Z,37.72
2022-12-15T17:21:20.900Z,39.60
2022-12-15T17:23:50.132Z,44.15
2022-12-15T17:26:28.093Z,61.83
2022-12-15T17:28:58.610Z,62.60
2022-12-15T17:31:30.263Z,51.22
2022-12-15T17:34:14.925Z,49.20
2022-12-15T17:36:42.513Z,52.60
2022-12-15T17:39:10.430Z,54.15
2022-12-15T17:44:35.671Z,51.50
2022-12-15T17:47:05.602Z,47.75
2022-12-15T17:49:36.672Z,47.47
2022-12-15T17:52:23.237Z,51.57
2022-12-15T17:54:51.298Z,48.22
2022-12-15T17:57:19.081Z,59.97
2022-12-15T17:59:46.520Z,60.47
2022-12-15T18:02:14.538Z,53.65
2022-12-15T18:04:42.880Z,50.58
2022-12-15T18:07:16.462Z,62.70
2022-12-15T18:09:44.260Z,74.07
2022-12-15T18:12:19.231Z,73.90
2022-12-15T18:14:46.755Z,71.82
2022-12-15T18:17:15.161Z,65.95
2022-12-15T18:19:42.643Z,72.18
2022-12-15T18:22:19.604Z,71.97
2022-12-15T18:24:47.025Z,68.15
2022-12-15T18:27:22.252Z,59.65
2022-12-15T18:29:49.769Z,59.75
2022-12-15T18:32:18.063Z,54.67
2022-12-15T18:34:45.673Z,54.30
2022-12-15T18:37:17.352Z,55.17
2022-12-15T18:39:44.910Z,55.47
2022-12-15T18:42:14.561Z,54.70
2022-12-15T18:44:48.082Z,53.33
2022-12-15T18:47:16.814Z,54.75
2022-12-15T18:49:44.516Z,52.42
2022-12-15T18:52:19.317Z,53.92
2022-12-15T18:54:47.356Z,53.20
2022-12-15T18:57:28.912Z,56.53
2022-12-15T18:59:59.834Z,57.13
2022-12-15T19:02:27.663Z,60.17
2022-12-15T19:04:55.213Z,65.70
2022-12-15T19:07:22.937Z,59.55
2022-12-15T19:09:52.816Z,50.95
2022-12-15T19:12:20.489Z,51.65
2022-12-15T19:14:50.628Z,50.13
2022-12-15T19:17:19.276Z,53.70
2022-12-15T19:19:46.685Z,75.70
2022-12-15T19:22:17.117Z,76.50
2022-12-15T19:24:44.568Z,58.00
2022-12-15T19:27:13.578Z,58.88
2022-12-15T19:29:41.370Z,63.85
2022-12-15T19:32:11.022Z,66.05
2022-12-15T19:34:38.404Z,60.00
2022-12-15T19:37:07.571Z,56.13
2022-12-15T19:39:35.071Z,52.05
2022-12-15T19:42:11.613Z,55.03
2022-12-15T19:51:33.226Z,55.00
2022-12-15T19:54:01.044Z,46.90
2022-12-15T19:56:28.850Z,42.65
2022-12-15T19:58:56.530Z,46.60
2022-12-15T20:01:24.354Z,48.90
2022-12-15T20:03:52.353Z,45.83
2022-12-15T20:06:21.202Z,46.40
2022-12-15T20:08:50.855Z,46.60
2022-12-15T20:11:20.473Z,54.67
2022-12-15T20:13:48.635Z,58.33
2022-12-15T20:16:19.194Z,52.13
2022-12-15T20:18:47.729Z,60.13
2022-12-15T20:24:37.161Z,52.33
2022-12-15T20:27:11.658Z,54.63
2022-12-15T20:29:39.442Z,52.53
2022-12-15T20:32:13.586Z,55.60
2022-12-15T20:34:41.006Z,55.58
2022-12-15T20:37:17.279Z,56.13
2022-12-15T20:39:44.675Z,55.08
2022-12-15T20:42:17.301Z,55.65
2022-12-15T20:44:44.757Z,54.65
2022-12-15T20:47:22.648Z,52.03
2022-12-15T20:49:50.564Z,56.03
2022-12-15T20:52:23.881Z,52.63
2022-12-15T20:54:52.118Z,53.85
2022-12-15T20:57:20.223Z,52.42
2022-12-15T20:59:47.713Z,56.85
2022-12-15T21:02:19.477Z,62.10
2022-12-15T21:04:46.985Z,57.47
2022-12-15T21:07:14.576Z,61.35
2022-12-15T21:09:41.941Z,57.35
2022-12-15T21:12:17.879Z,53.47
2022-12-15T21:14:45.288Z,60.08
2022-12-15T21:17:14.643Z,57.60
2022-12-15T21:19:42.134Z,55.90
2022-12-15T21:22:30.009Z,57.53
2022-12-15T21:24:57.625Z,57.25
2022-12-15T21:27:25.254Z,55.22
2022-12-15T21:29:53.238Z,54.65
2022-12-15T21:32:21.062Z,61.00
2022-12-15T21:34:48.443Z,56.22
2022-12-15T21:37:25.451Z,56.50
2022-12-15T21:39:53.089Z,57.83
2022-12-15T21:42:21.727Z,54.85
2022-12-15T21:44:49.083Z,51.17
2022-12-15T21:47:23.907Z,51.50
2022-12-15T21:49:52.038Z,50.85
2022-12-15T21:52:26.870Z,49.80
2022-12-15T21:54:54.182Z,46.50
2022-12-15T21:57:22.505Z,52.50
2022-12-15T21:59:49.858Z,48.58
2022-12-15T22:02:24.040Z,47.22
2022-12-15T22:08:23.809Z,46.25
2022-12-15T22:10:51.901Z,46.85
2022-12-15T22:13:21.136Z,45.10
2022-12-15T22:15:49.388Z,45.67
2022-12-15T22:18:19.019Z,44.17
2022-12-15T22:20:47.564Z,43.10
2022-12-15T22:23:15.522Z,46.80
2022-12-15T22:25:43.473Z,49.72
2022-12-15T22:28:21.343Z,45.70
2022-12-15T22:30:50.097Z,44.10
2022-12-15T22:33:20.725Z,45.55
2022-12-15T22:35:49.547Z,45.80
2022-12-15T22:38:17.555Z,43.45
2022-12-15T22:40:47.132Z,43.97
2022-12-15T22:43:22.818Z,42.33
2022-12-15T22:45:52.144Z,43.13
2022-12-15T22:48:20.661Z,44.22
2022-12-15T22:50:48.304Z,42.08
2022-12-15T22:53:16.539Z,42.25
2022-12-15T22:55:45.529Z,42.17
2022-12-15T22:58:15.564Z,42.97
2022-12-15T23:00:43.553Z,42.88
2022-12-15T23:03:11.532Z,43.03
2022-12-15T23:05:40.345Z,44.05
2022-12-15T23:08:07.901Z,42.45
2022-12-15T23:10:35.543Z,42.95
2022-12-15T23:13:03.041Z,42.90
2022-12-15T23:15:31.442Z,44.75
2022-12-15T23:17:58.791Z,40.80
2022-12-15T23:20:26.430Z,45.80
2022-12-15T23:22:53.748Z,43.72
2022-12-15T23:25:22.502Z,44.92
2022-12-15T23:27:49.902Z,43.28
2022-12-15T23:30:18.336Z,42.92
2022-12-15T23:32:45.796Z,40.55
2022-12-15T23:35:13.460Z,43.90
2022-12-15T23:37:40.812Z,42.33
2022-12-15T23:40:08.628Z,40.75
2022-12-15T23:42:35.953Z,43.95
2022-12-15T23:45:03.946Z,42.83
2022-12-15T23:47:31.505Z,43.13
2022-12-15T23:49:59.238Z,44.05
2022-12-15T23:52:27.219Z,43.25
2022-12-15T23:54:54.858Z,43.58
2022-12-15T23:57:22.713Z,41.92
2022-12-15T23:59:50.377Z,42.72
